Wes Sellars — WDF9302 — position and weather

sailwx.info

Track history (hours):
 
Tides and Currents Weather Stations Pressure Air Temp Water Temp Dewpoint Dewpoint Depression Visibility Wind Speed Wind Dir Waves Ship Positions

Wes Sellars

Owner: Florida Marine, LLC, Mandeville, LA. More information available from US FCC via Universal Licensing System and Coast Guard Vessel Documentation Center.

Last reported at 2017-Oct-19 14:24 UTC. Time now 2017-Oct-20 01:36 UTC.
Position N 29°56' W 093°52'.

Length 27 m; draft 2.9 m.

Type: Towing. MMSI: 367503760.

Date/timePositionNaut miles runAvg speedWind from/ knotsBaromVisibWave heightAir tempDewpointWater temp
2017-Oct-19 14:24N 29°56' W 093°52'0 1.1
2017-Oct-19 14:00N 29°56' W 093°53'2 5.0
2017-Oct-19 13:30N 29°58' W 093°51'0 0.5
2017-Oct-19 13:00N 29°58' W 093°52'0 0.0
2017-Oct-19 12:30N 29°58' W 093°52'0 0.0
2017-Oct-19 09:56N 29°58' W 093°52'0 0.0
2017-Oct-18 10:00N 29°58' W 093°52'0 0.7
2017-Oct-18 09:21N 29°58' W 093°51'9 2.5
2017-Oct-18 05:53N 30°03' W 093°43'2 5.7
2017-Oct-18 05:30N 30°04' W 093°41'3 5.7
2017-Oct-18 05:00N 30°04' W 093°37'2 4.9
2017-Oct-18 04:30N 30°04' W 093°35'3 5.4
2017-Oct-18 04:00N 30°04' W 093°31'3 5.5
2017-Oct-18 03:30N 30°04' W 093°28'3 5.4
2017-Oct-18 03:00N 30°04' W 093°25'3 5.2
2017-Oct-18 02:30N 30°04' W 093°22'2 3.1
2017-Oct-18 02:00N 30°04' W 093°21'2 4.4
2017-Oct-18 01:30N 30°06' W 093°20'2 3.1
2017-Oct-18 01:00N 30°08' W 093°20'0 0.6
2017-Oct-18 00:30N 30°08' W 093°19'0 0.0
2017-Oct-18 00:00N 30°08' W 093°19'0 0.0
2017-Oct-17 23:30N 30°08' W 093°19'0 0.0
2017-Oct-17 23:00N 30°08' W 093°19'0 0.0
2017-Oct-17 22:30N 30°08' W 093°19'0 0.0
2017-Oct-17 22:00N 30°08' W 093°19'0 0.0
2017-Oct-17 21:30N 30°08' W 093°19'0 0.0
2017-Oct-17 21:00N 30°08' W 093°19'0 0.0
2017-Oct-17 20:30N 30°08' W 093°19'0 0.0
2017-Oct-17 20:00N 30°08' W 093°19'0 0.0
2017-Oct-17 19:30N 30°08' W 093°19'0 0.0
2017-Oct-17 19:00N 30°08' W 093°19'0 0.0
2017-Oct-17 18:30N 30°08' W 093°19'0 0.0
2017-Oct-17 18:00N 30°08' W 093°19'0 0.0
2017-Oct-17 17:30N 30°08' W 093°19'0 0.0
2017-Oct-17 17:00N 30°08' W 093°19'0 0.0
2017-Oct-17 16:30N 30°08' W 093°19'0 0.0
2017-Oct-17 16:00N 30°08' W 093°19'0 0.0
2017-Oct-17 15:30N 30°08' W 093°19'0 0.0
2017-Oct-17 15:00N 30°08' W 093°19'0 0.0
2017-Oct-17 14:30N 30°08' W 093°19'0 0.0
2017-Oct-17 14:00N 30°08' W 093°19'0 0.0
2017-Oct-17 13:30N 30°08' W 093°19'0 0.0
2017-Oct-17 13:00N 30°08' W 093°19'0 0.0
2017-Oct-17 12:30N 30°08' W 093°19'0 0.0
2017-Oct-17 12:00N 30°08' W 093°19'0 0.0
2017-Oct-17 11:30N 30°08' W 093°19'0 0.0
2017-Oct-17 11:00N 30°08' W 093°19'0 0.0
2017-Oct-17 10:30N 30°08' W 093°19'0 0.0
2017-Oct-17 10:00N 30°08' W 093°19'0 0.0
2017-Oct-17 09:30N 30°08' W 093°19'0 0.0
2017-Oct-17 09:00N 30°08' W 093°19'0 0.0
2017-Oct-17 08:30N 30°08' W 093°19'0 0.0
2017-Oct-17 08:00N 30°08' W 093°19'0 0.0
2017-Oct-17 07:30N 30°08' W 093°19'0 0.0
2017-Oct-17 07:00N 30°08' W 093°19'0 0.0
2017-Oct-17 06:30N 30°08' W 093°19'0 0.0
2017-Oct-17 06:00N 30°08' W 093°19'0 0.0
2017-Oct-17 05:30N 30°08' W 093°19'0 0.0
2017-Oct-17 05:00N 30°08' W 093°19'0 0.4
2017-Oct-17 04:30N 30°08' W 093°19'0 0.0
2017-Oct-17 04:00N 30°08' W 093°19'0 0.0
2017-Oct-17 03:30N 30°08' W 093°19'0 0.1
2017-Oct-17 03:00N 30°08' W 093°20'2 4.4
2017-Oct-17 02:30N 30°06' W 093°20'2 3.4
2017-Oct-17 02:00N 30°04' W 093°20'0 0.0
2017-Oct-17 01:30N 30°04' W 093°20'0 0.0
2017-Oct-17 01:00N 30°04' W 093°20'0 0.0
2017-Oct-17 00:30N 30°04' W 093°20'0 0.0
2017-Oct-17 00:00N 30°04' W 093°20'0 0.0
2017-Oct-16 23:30N 30°04' W 093°20'0 0.0
2017-Oct-16 23:00N 30°04' W 093°20'0 0.0
2017-Oct-16 22:30N 30°04' W 093°20'0 0.0
2017-Oct-16 22:00N 30°04' W 093°20'0 0.1
2017-Oct-16 21:30N 30°04' W 093°20'3 5.4
2017-Oct-16 21:00N 30°06' W 093°18'0 0.0
2017-Oct-16 20:30N 30°06' W 093°18'0 0.0
2017-Oct-16 20:00N 30°06' W 093°18'0 0.0
2017-Oct-16 19:30N 30°06' W 093°18'0 0.0
2017-Oct-16 19:00N 30°06' W 093°18'0 0.0
2017-Oct-16 18:30N 30°06' W 093°18'1 2.4
2017-Oct-16 18:00N 30°06' W 093°19'2 3.0
2017-Oct-16 17:30N 30°04' W 093°20'0 0.0
2017-Oct-16 17:00N 30°04' W 093°20'0 0.0
2017-Oct-16 16:30N 30°04' W 093°20'0 0.0
2017-Oct-16 16:00N 30°04' W 093°20'0 0.0
2017-Oct-16 15:30N 30°04' W 093°20'0 0.0
2017-Oct-16 15:00N 30°04' W 093°20'0 0.0
2017-Oct-16 14:00N 30°04' W 093°20'0 0.0
2017-Oct-16 13:30N 30°04' W 093°20'0 0.1
2017-Oct-16 13:00N 30°04' W 093°20'0 0.1
2017-Oct-16 12:30N 30°04' W 093°20'0 0.0
2017-Oct-16 12:00N 30°04' W 093°20'0 0.0
2017-Oct-16 11:30N 30°04' W 093°20'0 0.0
2017-Oct-16 11:00N 30°04' W 093°20'0 0.0
2017-Oct-16 10:30N 30°04' W 093°20'0 0.0
2017-Oct-16 10:00N 30°04' W 093°20'0 0.0
2017-Oct-16 09:30N 30°04' W 093°20'0 0.0
2017-Oct-16 09:00N 30°04' W 093°20'0 0.0
2017-Oct-16 08:30N 30°04' W 093°20'0 0.0
2017-Oct-16 08:00N 30°04' W 093°20'0 0.0
2017-Oct-16 07:30N 30°04' W 093°20'0 0.0
2017-Oct-16 07:00N 30°04' W 093°20'0 0.0
2017-Oct-16 06:30N 30°04' W 093°20'0 0.0
2017-Oct-16 06:00N 30°04' W 093°20'0 0.0
2017-Oct-16 05:30N 30°04' W 093°20'0 0.0
2017-Oct-16 05:00N 30°04' W 093°20'0 0.0
2017-Oct-16 04:30N 30°04' W 093°20'0 0.0
2017-Oct-16 04:00N 30°04' W 093°20'0 0.0
2017-Oct-16 03:30N 30°04' W 093°20'0 0.0
2017-Oct-16 03:00N 30°04' W 093°20'0 0.0
2017-Oct-16 02:30N 30°04' W 093°20'0 0.0
2017-Oct-16 02:00N 30°04' W 093°20'0 0.0
2017-Oct-16 01:30N 30°04' W 093°20'0 0.0
2017-Oct-16 01:00N 30°04' W 093°20'0 0.0
2017-Oct-16 00:30N 30°04' W 093°20'0 0.0
2017-Oct-16 00:00N 30°04' W 093°20'0 0.0
2017-Oct-15 23:30N 30°04' W 093°20'0 0.0
2017-Oct-15 23:00N 30°04' W 093°20'0 0.0
2017-Oct-15 22:30N 30°04' W 093°20'0 0.0
2017-Oct-15 22:00N 30°04' W 093°20'0 0.0
2017-Oct-15 21:30N 30°04' W 093°20'0 0.0
2017-Oct-15 21:00N 30°04' W 093°20'0 0.0
2017-Oct-15 20:30N 30°04' W 093°20'0 0.0
2017-Oct-15 20:00N 30°04' W 093°20'0 0.0
2017-Oct-15 19:30N 30°04' W 093°20'0 0.0
2017-Oct-15 19:01N 30°04' W 093°20'0 0.0
2017-Oct-15 18:30N 30°04' W 093°20'0 0.0
2017-Oct-15 18:00N 30°04' W 093°20'0 0.0
2017-Oct-15 17:30N 30°04' W 093°20'0 0.0
2017-Oct-15 17:00N 30°04' W 093°20'0 0.0
2017-Oct-15 16:30N 30°04' W 093°20'0 0.0
2017-Oct-15 16:00N 30°04' W 093°20'0 0.0
2017-Oct-15 15:30N 30°04' W 093°20'0 0.0
2017-Oct-15 15:00N 30°04' W 093°20'0 0.0
2017-Oct-15 14:00N 30°04' W 093°20'0 0.0
2017-Oct-15 13:30N 30°04' W 093°20'0 0.0
2017-Oct-15 13:00N 30°04' W 093°20'0 0.0
2017-Oct-15 12:30N 30°04' W 093°20'0 0.0
2017-Oct-15 12:00N 30°04' W 093°20'0 0.0
2017-Oct-15 11:30N 30°04' W 093°20'0 0.0
2017-Oct-15 11:00N 30°04' W 093°20'0 0.0
2017-Oct-15 10:30N 30°04' W 093°20'0 0.0
2017-Oct-15 10:00N 30°04' W 093°20'0 0.0
2017-Oct-15 09:30N 30°04' W 093°20'0 0.0
2017-Oct-15 09:00N 30°04' W 093°20'0 0.0
2017-Oct-15 08:30N 30°04' W 093°20'0 0.0
2017-Oct-15 08:00N 30°04' W 093°20'0 0.0
2017-Oct-15 07:30N 30°04' W 093°20'0 0.0
2017-Oct-15 07:00N 30°04' W 093°20'0 0.0
2017-Oct-15 06:30N 30°04' W 093°20'0 0.0
2017-Oct-15 06:00N 30°04' W 093°20'0 0.0
2017-Oct-15 05:30N 30°04' W 093°20'0 0.0
2017-Oct-15 05:00N 30°04' W 093°20'0 0.0
2017-Oct-15 04:30N 30°04' W 093°20'0 0.0
2017-Oct-15 04:00N 30°04' W 093°20'0 0.0
2017-Oct-15 03:30N 30°04' W 093°20'0 0.0
2017-Oct-15 03:00N 30°04' W 093°20'0 0.0
2017-Oct-15 02:30N 30°04' W 093°20'0 0.0
2017-Oct-15 02:00N 30°04' W 093°20'0 0.0
2017-Oct-15 01:30N 30°04' W 093°20'0 0.0
2017-Oct-15 01:00N 30°04' W 093°20'0 0.0
2017-Oct-15 00:30N 30°04' W 093°20'0 0.0
2017-Oct-15 00:00N 30°04' W 093°20'0 0.0
2017-Oct-14 23:30N 30°04' W 093°20'0 0.0
2017-Oct-14 23:00N 30°04' W 093°20'0 0.0
2017-Oct-14 22:30N 30°04' W 093°20'0 0.0
2017-Oct-14 22:00N 30°04' W 093°20'0 0.0
2017-Oct-14 21:30N 30°04' W 093°20'0 0.0
2017-Oct-14 21:00N 30°04' W 093°20'0 0.0
2017-Oct-14 20:30N 30°04' W 093°20'0 0.0
2017-Oct-14 20:00N 30°04' W 093°20'0 0.0
2017-Oct-14 19:30N 30°04' W 093°20'0 0.0
2017-Oct-14 19:00N 30°04' W 093°20'0 0.0
2017-Oct-14 18:30N 30°04' W 093°20'0 0.0
2017-Oct-14 18:00N 30°04' W 093°20'0 0.0
2017-Oct-14 17:30N 30°04' W 093°20'0 0.0
2017-Oct-14 17:00N 30°04' W 093°20'0 0.0
2017-Oct-14 16:16N 30°04' W 093°20'0 0.0
2017-Oct-14 16:00N 30°04' W 093°20'0 0.0
2017-Oct-14 15:30N 30°04' W 093°20'0 0.0
2017-Oct-14 15:00N 30°04' W 093°20'0 0.0
2017-Oct-14 14:30N 30°04' W 093°20'0 0.0
2017-Oct-14 14:00N 30°04' W 093°20'0 0.0
2017-Oct-14 13:30N 30°04' W 093°20'0 0.0
2017-Oct-14 13:00N 30°04' W 093°20'0 0.0
2017-Oct-14 12:30N 30°04' W 093°20'0 0.0
2017-Oct-14 12:00N 30°04' W 093°20'0 0.0
2017-Oct-14 11:30N 30°04' W 093°20'0 0.0
2017-Oct-14 11:00N 30°04' W 093°20'0 0.0
2017-Oct-14 10:30N 30°04' W 093°20'0 0.0
2017-Oct-14 10:00N 30°04' W 093°20'0 0.1
2017-Oct-14 09:30N 30°04' W 093°20'1 1.6
2017-Oct-14 09:00N 30°04' W 093°21'3 5.4
2017-Oct-14 08:30N 30°04' W 093°24'4 7.1
2017-Oct-14 08:00N 30°04' W 093°28'4 7.2
2017-Oct-14 07:30N 30°04' W 093°32'4 7.3
2017-Oct-14 07:00N 30°04' W 093°37'4 7.1
2017-Oct-14 06:30N 30°04' W 093°41'3 6.6
2017-Oct-14 06:00N 30°02' W 093°44'3 6.9
2017-Oct-14 05:30N 29°60' W 093°47'65 6.7
2017-Oct-13 19:54N 29°25' W 094°50'3 8.3
2017-Oct-13 19:30N 29°28' W 094°51'4 8.3
2017-Oct-13 19:00N 29°32' W 094°53'4 8.2
2017-Oct-13 18:30N 29°35' W 094°56'4 8.1
2017-Oct-13 18:00N 29°39' W 094°58'4 8.1
2017-Oct-13 17:30N 29°42' W 095°01'3 7.0
2017-Oct-13 17:00N 29°44' W 095°04'3 5.0
2017-Oct-13 16:28N 29°44' W 095°07'3 7.5
2017-Oct-13 16:00N 29°45' W 095°11'2 0.5
2017-Oct-13 13:04N 29°44' W 095°12'0 0.0
2017-Oct-13 12:51N 29°44' W 095°12'0 0.0
2017-Oct-13 12:30N 29°44' W 095°12'0 0.0
2017-Oct-13 11:58N 29°44' W 095°12'0 0.0
2017-Oct-13 11:29N 29°44' W 095°12'0 0.0
2017-Oct-13 10:45N 29°44' W 095°12'0 0.0
2017-Oct-13 10:25N 29°44' W 095°12'0 0.0
2017-Oct-13 09:59N 29°44' W 095°12'0 0.0
2017-Oct-13 09:29N 29°44' W 095°12'0 0.0
2017-Oct-13 08:41N 29°44' W 095°12'0 0.0
2017-Oct-13 08:23N 29°44' W 095°12'0 0.0
2017-Oct-13 06:47N 29°44' W 095°12'0 0.0
2017-Oct-13 06:27N 29°44' W 095°12'0 0.0
2017-Oct-13 06:00N 29°44' W 095°12'0 0.0
2017-Oct-13 04:36N 29°44' W 095°12'0 0.0
2017-Oct-13 04:28N 29°44' W 095°12'0 0.0
2017-Oct-13 03:52N 29°44' W 095°12'0 0.0
2017-Oct-13 03:19N 29°44' W 095°12'0 0.0
2017-Oct-13 01:55N 29°44' W 095°12'0 0.0
2017-Oct-13 01:30N 29°44' W 095°12'0 0.0
2017-Oct-13 00:58N 29°44' W 095°12'0 0.0
2017-Oct-13 00:30N 29°44' W 095°12'0 0.0
2017-Oct-13 00:00N 29°44' W 095°12'0 0.0
2017-Oct-12 23:30N 29°44' W 095°12'0 0.0
2017-Oct-12 22:59N 29°44' W 095°12'0 0.0
2017-Oct-12 22:21N 29°44' W 095°12'0 0.0
2017-Oct-12 21:55N 29°44' W 095°12'0 0.0
2017-Oct-12 21:30N 29°44' W 095°12'0 0.1
2017-Oct-12 20:05N 29°44' W 095°12'0 3.9
2017-Oct-12 20:00N 29°44' W 095°12'3 6.0
2017-Oct-12 19:30N 29°44' W 095°09'4 6.3
2017-Oct-12 18:56N 29°46' W 095°05'1 1.1
2017-Oct-12 18:29N 29°46' W 095°05'1 2.7
2017-Oct-12 17:59N 29°47' W 095°04'0 0.1
2017-Oct-12 17:16N 29°48' W 095°04'1 4.3
2017-Oct-12 16:58N 29°46' W 095°05'1 0.1
2017-Oct-12 05:06N 29°46' W 095°06'0 5.1
2017-Oct-12 05:00N 29°46' W 095°06'1 2.3
2017-Oct-12 04:31N 29°46' W 095°07'0 0.4
2017-Oct-12 04:00N 29°46' W 095°07'1 1.4
2017-Oct-12 03:30N 29°45' W 095°06'1 1.0
2017-Oct-12 02:59N 29°46' W 095°05'0 0.5
2017-Oct-12 02:30N 29°46' W 095°05'2 0.2
2017-Oct-11 17:49N 29°47' W 095°04'1 3.3
2017-Oct-11 17:29N 29°46' W 095°05'2 4.2
2017-Oct-11 17:00N 29°44' W 095°04'73 3.0
2017-Oct-10 16:32N 30°03' W 093°43'0 3.9
2017-Oct-10 16:30N 30°03' W 093°43'2 4.7
2017-Oct-10 16:00N 30°04' W 093°40'3 5.6
2017-Oct-10 15:30N 30°04' W 093°37'3 5.6
2017-Oct-10 15:00N 30°04' W 093°33'6 5.6
2017-Oct-10 14:00N 30°04' W 093°27'3 5.6
2017-Oct-10 13:30N 30°04' W 093°24'2 4.6
2017-Oct-10 13:00N 30°04' W 093°21'2 4.5
2017-Oct-10 12:30N 30°05' W 093°20'3 5.2
2017-Oct-10 12:00N 30°08' W 093°20'0 0.7
2017-Oct-10 11:30N 30°08' W 093°19'0 0.0
2017-Oct-10 11:00N 30°08' W 093°19'0 0.0
2017-Oct-10 10:30N 30°08' W 093°19'0 0.0
2017-Oct-10 10:00N 30°08' W 093°19'0 0.0
2017-Oct-10 09:31N 30°08' W 093°19'0 0.0
2017-Oct-10 09:00N 30°08' W 093°19'0 0.0
2017-Oct-10 08:30N 30°08' W 093°19'0 0.0
2017-Oct-10 08:00N 30°08' W 093°19'0 0.0
2017-Oct-10 07:30N 30°08' W 093°19'0 0.0
2017-Oct-10 07:00N 30°08' W 093°19'0 0.0
2017-Oct-10 06:30N 30°08' W 093°19'0 0.0
2017-Oct-10 06:00N 30°08' W 093°19'0 0.0
2017-Oct-10 05:30N 30°08' W 093°19'0 0.0
2017-Oct-10 05:00N 30°08' W 093°19'0 0.0
2017-Oct-10 04:30N 30°08' W 093°19'0 0.0
2017-Oct-10 04:00N 30°08' W 093°19'0 0.0
2017-Oct-10 03:30N 30°08' W 093°19'0 0.0
2017-Oct-10 03:00N 30°08' W 093°19'0 0.0
2017-Oct-10 02:30N 30°08' W 093°19'0 0.0
2017-Oct-10 02:00N 30°08' W 093°19'0 0.0
2017-Oct-10 01:30N 30°08' W 093°19'0 0.0
2017-Oct-10 01:00N 30°08' W 093°19'0 0.0
2017-Oct-10 00:30N 30°08' W 093°19'0 0.0
2017-Oct-10 00:00N 30°08' W 093°19'0 0.0
2017-Oct-09 23:30N 30°08' W 093°19'0 0.0
2017-Oct-09 23:00N 30°08' W 093°19'0 0.0
2017-Oct-09 22:30N 30°08' W 093°19'0 0.0
2017-Oct-09 22:00N 30°08' W 093°19'0 0.0
2017-Oct-09 21:30N 30°08' W 093°19'0 0.0
2017-Oct-09 21:00N 30°08' W 093°19'0 0.0
2017-Oct-09 20:30N 30°08' W 093°19'0 0.0
2017-Oct-09 20:00N 30°08' W 093°19'0 0.0
2017-Oct-09 19:30N 30°08' W 093°19'0 0.0
2017-Oct-09 19:00N 30°08' W 093°19'0 0.0
2017-Oct-09 18:30N 30°08' W 093°19'0 0.0
2017-Oct-09 18:00N 30°08' W 093°19'0 0.0
2017-Oct-09 17:30N 30°08' W 093°19'0 0.0
2017-Oct-09 17:00N 30°08' W 093°19'0 0.0
2017-Oct-09 16:30N 30°08' W 093°19'0 0.0
2017-Oct-09 16:00N 30°08' W 093°19'0 0.2
2017-Oct-09 15:30N 30°08' W 093°20'2 4.5
2017-Oct-09 15:00N 30°06' W 093°20'2 3.8
2017-Oct-09 14:30N 30°04' W 093°21'  
Track history (hours):
 
Tides and Currents Weather Stations Pressure Air Temp Water Temp Dewpoint Dewpoint Depression Visibility Wind Speed Wind Dir Waves Ship Positions

Wes Sellars

Owner: Florida Marine, LLC, Mandeville, LA. More information available from US FCC via Universal Licensing System and Coast Guard Vessel Documentation Center.

Last reported at 2017-Oct-19 14:24 UTC. Time now 2017-Oct-20 01:36 UTC.
Position N 29°56' W 093°52'.

Length 27 m; draft 2.9 m.

Type: Towing. MMSI: 367503760.

Date/timePositionNaut miles runAvg speedWind from/ knotsBaromVisibWave heightAir tempDewpointWater temp
2017-Oct-19 14:24N 29°56' W 093°52'0 1.1
2017-Oct-19 14:00N 29°56' W 093°53'2 5.0
2017-Oct-19 13:30N 29°58' W 093°51'0 0.5
2017-Oct-19 13:00N 29°58' W 093°52'0 0.0
2017-Oct-19 12:30N 29°58' W 093°52'0 0.0
2017-Oct-19 09:56N 29°58' W 093°52'0 0.0
2017-Oct-18 10:00N 29°58' W 093°52'0 0.7
2017-Oct-18 09:21N 29°58' W 093°51'9 2.5
2017-Oct-18 05:53N 30°03' W 093°43'2 5.7
2017-Oct-18 05:30N 30°04' W 093°41'3 5.7
2017-Oct-18 05:00N 30°04' W 093°37'2 4.9
2017-Oct-18 04:30N 30°04' W 093°35'3 5.4
2017-Oct-18 04:00N 30°04' W 093°31'3 5.5
2017-Oct-18 03:30N 30°04' W 093°28'3 5.4
2017-Oct-18 03:00N 30°04' W 093°25'3 5.2
2017-Oct-18 02:30N 30°04' W 093°22'2 3.1
2017-Oct-18 02:00N 30°04' W 093°21'2 4.4
2017-Oct-18 01:30N 30°06' W 093°20'2 3.1
2017-Oct-18 01:00N 30°08' W 093°20'0 0.6
2017-Oct-18 00:30N 30°08' W 093°19'0 0.0
2017-Oct-18 00:00N 30°08' W 093°19'0 0.0
2017-Oct-17 23:30N 30°08' W 093°19'0 0.0
2017-Oct-17 23:00N 30°08' W 093°19'0 0.0
2017-Oct-17 22:30N 30°08' W 093°19'0 0.0
2017-Oct-17 22:00N 30°08' W 093°19'0 0.0
2017-Oct-17 21:30N 30°08' W 093°19'0 0.0
2017-Oct-17 21:00N 30°08' W 093°19'0 0.0
2017-Oct-17 20:30N 30°08' W 093°19'0 0.0
2017-Oct-17 20:00N 30°08' W 093°19'0 0.0
2017-Oct-17 19:30N 30°08' W 093°19'0 0.0
2017-Oct-17 19:00N 30°08' W 093°19'0 0.0
2017-Oct-17 18:30N 30°08' W 093°19'0 0.0
2017-Oct-17 18:00N 30°08' W 093°19'0 0.0
2017-Oct-17 17:30N 30°08' W 093°19'0 0.0
2017-Oct-17 17:00N 30°08' W 093°19'0 0.0
2017-Oct-17 16:30N 30°08' W 093°19'0 0.0
2017-Oct-17 16:00N 30°08' W 093°19'0 0.0
2017-Oct-17 15:30N 30°08' W 093°19'0 0.0
2017-Oct-17 15:00N 30°08' W 093°19'0 0.0
2017-Oct-17 14:30N 30°08' W 093°19'0 0.0
2017-Oct-17 14:00N 30°08' W 093°19'0 0.0
2017-Oct-17 13:30N 30°08' W 093°19'0 0.0
2017-Oct-17 13:00N 30°08' W 093°19'0 0.0
2017-Oct-17 12:30N 30°08' W 093°19'0 0.0
2017-Oct-17 12:00N 30°08' W 093°19'0 0.0
2017-Oct-17 11:30N 30°08' W 093°19'0 0.0
2017-Oct-17 11:00N 30°08' W 093°19'0 0.0
2017-Oct-17 10:30N 30°08' W 093°19'0 0.0
2017-Oct-17 10:00N 30°08' W 093°19'0 0.0
2017-Oct-17 09:30N 30°08' W 093°19'0 0.0
2017-Oct-17 09:00N 30°08' W 093°19'0 0.0
2017-Oct-17 08:30N 30°08' W 093°19'0 0.0
2017-Oct-17 08:00N 30°08' W 093°19'0 0.0
2017-Oct-17 07:30N 30°08' W 093°19'0 0.0
2017-Oct-17 07:00N 30°08' W 093°19'0 0.0
2017-Oct-17 06:30N 30°08' W 093°19'0 0.0
2017-Oct-17 06:00N 30°08' W 093°19'0 0.0
2017-Oct-17 05:30N 30°08' W 093°19'0 0.0
2017-Oct-17 05:00N 30°08' W 093°19'0 0.4
2017-Oct-17 04:30N 30°08' W 093°19'0 0.0
2017-Oct-17 04:00N 30°08' W 093°19'0 0.0
2017-Oct-17 03:30N 30°08' W 093°19'0 0.1
2017-Oct-17 03:00N 30°08' W 093°20'2 4.4
2017-Oct-17 02:30N 30°06' W 093°20'2 3.4
2017-Oct-17 02:00N 30°04' W 093°20'0 0.0
2017-Oct-17 01:30N 30°04' W 093°20'0 0.0
2017-Oct-17 01:00N 30°04' W 093°20'0 0.0
2017-Oct-17 00:30N 30°04' W 093°20'0 0.0
2017-Oct-17 00:00N 30°04' W 093°20'0 0.0
2017-Oct-16 23:30N 30°04' W 093°20'0 0.0
2017-Oct-16 23:00N 30°04' W 093°20'0 0.0
2017-Oct-16 22:30N 30°04' W 093°20'0 0.0
2017-Oct-16 22:00N 30°04' W 093°20'0 0.1
2017-Oct-16 21:30N 30°04' W 093°20'3 5.4
2017-Oct-16 21:00N 30°06' W 093°18'0 0.0
2017-Oct-16 20:30N 30°06' W 093°18'0 0.0
2017-Oct-16 20:00N 30°06' W 093°18'0 0.0
2017-Oct-16 19:30N 30°06' W 093°18'0 0.0
2017-Oct-16 19:00N 30°06' W 093°18'0 0.0
2017-Oct-16 18:30N 30°06' W 093°18'1 2.4
2017-Oct-16 18:00N 30°06' W 093°19'2 3.0
2017-Oct-16 17:30N 30°04' W 093°20'0 0.0
2017-Oct-16 17:00N 30°04' W 093°20'0 0.0
2017-Oct-16 16:30N 30°04' W 093°20'0 0.0
2017-Oct-16 16:00N 30°04' W 093°20'0 0.0
2017-Oct-16 15:30N 30°04' W 093°20'0 0.0
2017-Oct-16 15:00N 30°04' W 093°20'0 0.0
2017-Oct-16 14:00N 30°04' W 093°20'0 0.0
2017-Oct-16 13:30N 30°04' W 093°20'0 0.1
2017-Oct-16 13:00N 30°04' W 093°20'0 0.1
2017-Oct-16 12:30N 30°04' W 093°20'0 0.0
2017-Oct-16 12:00N 30°04' W 093°20'0 0.0
2017-Oct-16 11:30N 30°04' W 093°20'0 0.0
2017-Oct-16 11:00N 30°04' W 093°20'0 0.0
2017-Oct-16 10:30N 30°04' W 093°20'0 0.0
2017-Oct-16 10:00N 30°04' W 093°20'0 0.0
2017-Oct-16 09:30N 30°04' W 093°20'0 0.0
2017-Oct-16 09:00N 30°04' W 093°20'0 0.0
2017-Oct-16 08:30N 30°04' W 093°20'0 0.0
2017-Oct-16 08:00N 30°04' W 093°20'0 0.0
2017-Oct-16 07:30N 30°04' W 093°20'0 0.0
2017-Oct-16 07:00N 30°04' W 093°20'0 0.0
2017-Oct-16 06:30N 30°04' W 093°20'0 0.0
2017-Oct-16 06:00N 30°04' W 093°20'0 0.0
2017-Oct-16 05:30N 30°04' W 093°20'0 0.0
2017-Oct-16 05:00N 30°04' W 093°20'0 0.0
2017-Oct-16 04:30N 30°04' W 093°20'0 0.0
2017-Oct-16 04:00N 30°04' W 093°20'0 0.0
2017-Oct-16 03:30N 30°04' W 093°20'0 0.0
2017-Oct-16 03:00N 30°04' W 093°20'0 0.0
2017-Oct-16 02:30N 30°04' W 093°20'0 0.0
2017-Oct-16 02:00N 30°04' W 093°20'0 0.0
2017-Oct-16 01:30N 30°04' W 093°20'0 0.0
2017-Oct-16 01:00N 30°04' W 093°20'0 0.0
2017-Oct-16 00:30N 30°04' W 093°20'0 0.0
2017-Oct-16 00:00N 30°04' W 093°20'0 0.0
2017-Oct-15 23:30N 30°04' W 093°20'0 0.0
2017-Oct-15 23:00N 30°04' W 093°20'0 0.0
2017-Oct-15 22:30N 30°04' W 093°20'0 0.0
2017-Oct-15 22:00N 30°04' W 093°20'0 0.0
2017-Oct-15 21:30N 30°04' W 093°20'0 0.0
2017-Oct-15 21:00N 30°04' W 093°20'0 0.0
2017-Oct-15 20:30N 30°04' W 093°20'0 0.0
2017-Oct-15 20:00N 30°04' W 093°20'0 0.0
2017-Oct-15 19:30N 30°04' W 093°20'0 0.0
2017-Oct-15 19:01N 30°04' W 093°20'0 0.0
2017-Oct-15 18:30N 30°04' W 093°20'0 0.0
2017-Oct-15 18:00N 30°04' W 093°20'0 0.0
2017-Oct-15 17:30N 30°04' W 093°20'0 0.0
2017-Oct-15 17:00N 30°04' W 093°20'0 0.0
2017-Oct-15 16:30N 30°04' W 093°20'0 0.0
2017-Oct-15 16:00N 30°04' W 093°20'0 0.0
2017-Oct-15 15:30N 30°04' W 093°20'0 0.0
2017-Oct-15 15:00N 30°04' W 093°20'0 0.0
2017-Oct-15 14:00N 30°04' W 093°20'0 0.0
2017-Oct-15 13:30N 30°04' W 093°20'0 0.0
2017-Oct-15 13:00N 30°04' W 093°20'0 0.0
2017-Oct-15 12:30N 30°04' W 093°20'0 0.0
2017-Oct-15 12:00N 30°04' W 093°20'0 0.0
2017-Oct-15 11:30N 30°04' W 093°20'0 0.0
2017-Oct-15 11:00N 30°04' W 093°20'0 0.0
2017-Oct-15 10:30N 30°04' W 093°20'0 0.0
2017-Oct-15 10:00N 30°04' W 093°20'0 0.0
2017-Oct-15 09:30N 30°04' W 093°20'0 0.0
2017-Oct-15 09:00N 30°04' W 093°20'0 0.0
2017-Oct-15 08:30N 30°04' W 093°20'0 0.0
2017-Oct-15 08:00N 30°04' W 093°20'0 0.0
2017-Oct-15 07:30N 30°04' W 093°20'0 0.0
2017-Oct-15 07:00N 30°04' W 093°20'0 0.0
2017-Oct-15 06:30N 30°04' W 093°20'0 0.0
2017-Oct-15 06:00N 30°04' W 093°20'0 0.0
2017-Oct-15 05:30N 30°04' W 093°20'0 0.0
2017-Oct-15 05:00N 30°04' W 093°20'0 0.0
2017-Oct-15 04:30N 30°04' W 093°20'0 0.0
2017-Oct-15 04:00N 30°04' W 093°20'0 0.0
2017-Oct-15 03:30N 30°04' W 093°20'0 0.0
2017-Oct-15 03:00N 30°04' W 093°20'0 0.0
2017-Oct-15 02:30N 30°04' W 093°20'0 0.0
2017-Oct-15 02:00N 30°04' W 093°20'0 0.0
2017-Oct-15 01:30N 30°04' W 093°20'0 0.0
2017-Oct-15 01:00N 30°04' W 093°20'0 0.0
2017-Oct-15 00:30N 30°04' W 093°20'0 0.0
2017-Oct-15 00:00N 30°04' W 093°20'0 0.0
2017-Oct-14 23:30N 30°04' W 093°20'0 0.0
2017-Oct-14 23:00N 30°04' W 093°20'0 0.0
2017-Oct-14 22:30N 30°04' W 093°20'0 0.0
2017-Oct-14 22:00N 30°04' W 093°20'0 0.0
2017-Oct-14 21:30N 30°04' W 093°20'0 0.0
2017-Oct-14 21:00N 30°04' W 093°20'0 0.0
2017-Oct-14 20:30N 30°04' W 093°20'0 0.0
2017-Oct-14 20:00N 30°04' W 093°20'0 0.0
2017-Oct-14 19:30N 30°04' W 093°20'0 0.0
2017-Oct-14 19:00N 30°04' W 093°20'0 0.0
2017-Oct-14 18:30N 30°04' W 093°20'0 0.0
2017-Oct-14 18:00N 30°04' W 093°20'0 0.0
2017-Oct-14 17:30N 30°04' W 093°20'0 0.0
2017-Oct-14 17:00N 30°04' W 093°20'0 0.0
2017-Oct-14 16:16N 30°04' W 093°20'0 0.0
2017-Oct-14 16:00N 30°04' W 093°20'0 0.0
2017-Oct-14 15:30N 30°04' W 093°20'0 0.0
2017-Oct-14 15:00N 30°04' W 093°20'0 0.0
2017-Oct-14 14:30N 30°04' W 093°20'0 0.0
2017-Oct-14 14:00N 30°04' W 093°20'0 0.0
2017-Oct-14 13:30N 30°04' W 093°20'0 0.0
2017-Oct-14 13:00N 30°04' W 093°20'0 0.0
2017-Oct-14 12:30N 30°04' W 093°20'0 0.0
2017-Oct-14 12:00N 30°04' W 093°20'0 0.0
2017-Oct-14 11:30N 30°04' W 093°20'0 0.0
2017-Oct-14 11:00N 30°04' W 093°20'0 0.0
2017-Oct-14 10:30N 30°04' W 093°20'0 0.0
2017-Oct-14 10:00N 30°04' W 093°20'0 0.1
2017-Oct-14 09:30N 30°04' W 093°20'1 1.6
2017-Oct-14 09:00N 30°04' W 093°21'3 5.4
2017-Oct-14 08:30N 30°04' W 093°24'4 7.1
2017-Oct-14 08:00N 30°04' W 093°28'4 7.2
2017-Oct-14 07:30N 30°04' W 093°32'4 7.3
2017-Oct-14 07:00N 30°04' W 093°37'4 7.1
2017-Oct-14 06:30N 30°04' W 093°41'3 6.6
2017-Oct-14 06:00N 30°02' W 093°44'3 6.9
2017-Oct-14 05:30N 29°60' W 093°47'65 6.7
2017-Oct-13 19:54N 29°25' W 094°50'3 8.3
2017-Oct-13 19:30N 29°28' W 094°51'4 8.3
2017-Oct-13 19:00N 29°32' W 094°53'4 8.2
2017-Oct-13 18:30N 29°35' W 094°56'4 8.1
2017-Oct-13 18:00N 29°39' W 094°58'4 8.1
2017-Oct-13 17:30N 29°42' W 095°01'3 7.0
2017-Oct-13 17:00N 29°44' W 095°04'3 5.0
2017-Oct-13 16:28N 29°44' W 095°07'3 7.5
2017-Oct-13 16:00N 29°45' W 095°11'2 0.5
2017-Oct-13 13:04N 29°44' W 095°12'0 0.0
2017-Oct-13 12:51N 29°44' W 095°12'0 0.0
2017-Oct-13 12:30N 29°44' W 095°12'0 0.0
2017-Oct-13 11:58N 29°44' W 095°12'0 0.0
2017-Oct-13 11:29N 29°44' W 095°12'0 0.0
2017-Oct-13 10:45N 29°44' W 095°12'0 0.0
2017-Oct-13 10:25N 29°44' W 095°12'0 0.0
2017-Oct-13 09:59N 29°44' W 095°12'0 0.0
2017-Oct-13 09:29N 29°44' W 095°12'0 0.0
2017-Oct-13 08:41N 29°44' W 095°12'0 0.0
2017-Oct-13 08:23N 29°44' W 095°12'0 0.0
2017-Oct-13 06:47N 29°44' W 095°12'0 0.0
2017-Oct-13 06:27N 29°44' W 095°12'0 0.0
2017-Oct-13 06:00N 29°44' W 095°12'0 0.0
2017-Oct-13 04:36N 29°44' W 095°12'0 0.0
2017-Oct-13 04:28N 29°44' W 095°12'0 0.0
2017-Oct-13 03:52N 29°44' W 095°12'0 0.0
2017-Oct-13 03:19N 29°44' W 095°12'0 0.0
2017-Oct-13 01:55N 29°44' W 095°12'0 0.0
2017-Oct-13 01:30N 29°44' W 095°12'0 0.0
2017-Oct-13 00:58N 29°44' W 095°12'0 0.0
2017-Oct-13 00:30N 29°44' W 095°12'0 0.0
2017-Oct-13 00:00N 29°44' W 095°12'0 0.0
2017-Oct-12 23:30N 29°44' W 095°12'0 0.0
2017-Oct-12 22:59N 29°44' W 095°12'0 0.0
2017-Oct-12 22:21N 29°44' W 095°12'0 0.0
2017-Oct-12 21:55N 29°44' W 095°12'0 0.0
2017-Oct-12 21:30N 29°44' W 095°12'0 0.1
2017-Oct-12 20:05N 29°44' W 095°12'0 3.9
2017-Oct-12 20:00N 29°44' W 095°12'3 6.0
2017-Oct-12 19:30N 29°44' W 095°09'4 6.3
2017-Oct-12 18:56N 29°46' W 095°05'1 1.1
2017-Oct-12 18:29N 29°46' W 095°05'1 2.7
2017-Oct-12 17:59N 29°47' W 095°04'0 0.1
2017-Oct-12 17:16N 29°48' W 095°04'1 4.3
2017-Oct-12 16:58N 29°46' W 095°05'1 0.1
2017-Oct-12 05:06N 29°46' W 095°06'0 5.1
2017-Oct-12 05:00N 29°46' W 095°06'1 2.3
2017-Oct-12 04:31N 29°46' W 095°07'0 0.4
2017-Oct-12 04:00N 29°46' W 095°07'1 1.4
2017-Oct-12 03:30N 29°45' W 095°06'1 1.0
2017-Oct-12 02:59N 29°46' W 095°05'0 0.5
2017-Oct-12 02:30N 29°46' W 095°05'2 0.2
2017-Oct-11 17:49N 29°47' W 095°04'1 3.3
2017-Oct-11 17:29N 29°46' W 095°05'2 4.2
2017-Oct-11 17:00N 29°44' W 095°04'73 3.0
2017-Oct-10 16:32N 30°03' W 093°43'0 3.9
2017-Oct-10 16:30N 30°03' W 093°43'2 4.7
2017-Oct-10 16:00N 30°04' W 093°40'3 5.6
2017-Oct-10 15:30N 30°04' W 093°37'3 5.6
2017-Oct-10 15:00N 30°04' W 093°33'6 5.6
2017-Oct-10 14:00N 30°04' W 093°27'3 5.6
2017-Oct-10 13:30N 30°04' W 093°24'2 4.6
2017-Oct-10 13:00N 30°04' W 093°21'2 4.5
2017-Oct-10 12:30N 30°05' W 093°20'3 5.2
2017-Oct-10 12:00N 30°08' W 093°20'0 0.7
2017-Oct-10 11:30N 30°08' W 093°19'0 0.0
2017-Oct-10 11:00N 30°08' W 093°19'0 0.0
2017-Oct-10 10:30N 30°08' W 093°19'0 0.0
2017-Oct-10 10:00N 30°08' W 093°19'0 0.0
2017-Oct-10 09:31N 30°08' W 093°19'0 0.0
2017-Oct-10 09:00N 30°08' W 093°19'0 0.0
2017-Oct-10 08:30N 30°08' W 093°19'0 0.0
2017-Oct-10 08:00N 30°08' W 093°19'0 0.0
2017-Oct-10 07:30N 30°08' W 093°19'0 0.0
2017-Oct-10 07:00N 30°08' W 093°19'0 0.0
2017-Oct-10 06:30N 30°08' W 093°19'0 0.0
2017-Oct-10 06:00N 30°08' W 093°19'0 0.0
2017-Oct-10 05:30N 30°08' W 093°19'0 0.0
2017-Oct-10 05:00N 30°08' W 093°19'0 0.0
2017-Oct-10 04:30N 30°08' W 093°19'0 0.0
2017-Oct-10 04:00N 30°08' W 093°19'0 0.0
2017-Oct-10 03:30N 30°08' W 093°19'0 0.0
2017-Oct-10 03:00N 30°08' W 093°19'0 0.0
2017-Oct-10 02:30N 30°08' W 093°19'0 0.0
2017-Oct-10 02:00N 30°08' W 093°19'0 0.0
2017-Oct-10 01:30N 30°08' W 093°19'0 0.0
2017-Oct-10 01:00N 30°08' W 093°19'0 0.0
2017-Oct-10 00:30N 30°08' W 093°19'0 0.0
2017-Oct-10 00:00N 30°08' W 093°19'0 0.0
2017-Oct-09 23:30N 30°08' W 093°19'0 0.0
2017-Oct-09 23:00N 30°08' W 093°19'0 0.0
2017-Oct-09 22:30N 30°08' W 093°19'0 0.0
2017-Oct-09 22:00N 30°08' W 093°19'0 0.0
2017-Oct-09 21:30N 30°08' W 093°19'0 0.0
2017-Oct-09 21:00N 30°08' W 093°19'0 0.0
2017-Oct-09 20:30N 30°08' W 093°19'0 0.0
2017-Oct-09 20:00N 30°08' W 093°19'0 0.0
2017-Oct-09 19:30N 30°08' W 093°19'0 0.0
2017-Oct-09 19:00N 30°08' W 093°19'0 0.0
2017-Oct-09 18:30N 30°08' W 093°19'0 0.0
2017-Oct-09 18:00N 30°08' W 093°19'0 0.0
2017-Oct-09 17:30N 30°08' W 093°19'0 0.0
2017-Oct-09 17:00N 30°08' W 093°19'0 0.0
2017-Oct-09 16:30N 30°08' W 093°19'0 0.0
2017-Oct-09 16:00N 30°08' W 093°19'0 0.2
2017-Oct-09 15:30N 30°08' W 093°20'2 4.5
2017-Oct-09 15:00N 30°06' W 093°20'2 3.8
2017-Oct-09 14:30N 30°04' W 093°21'  

Dump ship's entire track history